Time;durP1;ratioP1;P1;durP2;ratioP2;P2;SDS_P1;SDS_P2;PMS_P1;PMS_P2;Temp;Humidity;BMP_temperature;BMP_pressure;BME280_temperature;BME280_humidity;BME280_pressure;Samples;Min_cycle;Max_cycle;Signal;HPM_P1;HPM_P2
2023/12/03 00:02:02;;;;;;;16.17;8.20;;;7.30;99.90;;;;;;4954149;28;20034;-82
2023/12/03 00:04:28;;;;;;;16.40;8.43;;;7.30;99.90;;;;;;4955643;29;20035;-80
2023/12/03 00:06:54;;;;;;;15.43;8.25;;;7.30;99.90;;;;;;4954395;28;20071;-82
2023/12/03 00:09:20;;;;;;;17.63;9.05;;;7.30;99.90;;;;;;4952944;28;20114;-81
2023/12/03 00:11:45;;;;;;;14.00;7.78;;;7.30;99.90;;;;;;4956167;29;20093;-81
2023/12/03 00:14:11;;;;;;;14.18;7.95;;;7.30;99.90;;;;;;4954350;29;20028;-81
2023/12/03 00:16:36;;;;;;;15.73;8.13;;;7.30;99.90;;;;;;4955538;29;20122;-82
2023/12/03 00:19:02;;;;;;;15.05;8.02;;;7.30;99.90;;;;;;4954581;29;20035;-81
2023/12/03 00:21:27;;;;;;;14.02;7.65;;;7.30;99.90;;;;;;4953162;29;20019;-82
2023/12/03 00:23:53;;;;;;;13.07;7.53;;;7.30;99.90;;;;;;4954298;29;20050;-82
2023/12/03 00:26:19;;;;;;;11.93;6.88;;;7.30;99.90;;;;;;4957666;28;20059;-80
2023/12/03 00:28:44;;;;;;;15.93;7.32;;;7.30;99.90;;;;;;4973552;29;20031;-80
2023/12/03 00:31:10;;;;;;;14.48;7.35;;;7.30;99.90;;;;;;4971796;29;20027;-79
2023/12/03 00:33:35;;;;;;;14.38;7.72;;;7.30;99.90;;;;;;4969355;29;20042;-82
2023/12/03 00:36:01;;;;;;;14.57;7.32;;;7.30;99.90;;;;;;4970543;29;20034;-82
2023/12/03 00:38:26;;;;;;;13.68;7.22;;;7.30;99.90;;;;;;4986855;28;20094;-81
2023/12/03 00:40:52;;;;;;;11.60;7.45;;;7.30;99.90;;;;;;4969907;28;20038;-80
2023/12/03 00:43:17;;;;;;;15.43;8.00;;;7.30;99.90;;;;;;4971217;28;20023;-81
2023/12/03 00:45:43;;;;;;;14.27;7.07;;;7.30;99.90;;;;;;4969665;29;20031;-82
2023/12/03 00:48:08;;;;;;;14.48;7.68;;;7.30;99.90;;;;;;4969625;29;20023;-82
2023/12/03 00:50:34;;;;;;;21.08;7.72;;;7.30;99.90;;;;;;4970803;29;20078;-82
2023/12/03 00:52:59;;;;;;;13.52;7.45;;;7.30;99.90;;;;;;4971040;29;20027;-80
2023/12/03 00:55:25;;;;;;;12.15;7.22;;;7.30;99.90;;;;;;4968289;28;20110;-80
2023/12/03 00:57:50;;;;;;;14.75;7.68;;;7.30;99.90;;;;;;4969071;28;20425;-80
2023/12/03 01:00:17;;;;;;;17.27;8.18;;;7.30;99.90;;;;;;4982894;28;20042;-81
2023/12/03 01:02:42;;;;;;;19.55;8.25;;;7.30;99.90;;;;;;4968988;29;20074;-81
2023/12/03 01:05:08;;;;;;;13.05;7.68;;;7.30;99.90;;;;;;4968935;28;20398;-80
2023/12/03 01:07:34;;;;;;;17.17;8.02;;;7.30;99.90;;;;;;4967466;28;20486;-81
2023/12/03 01:10:00;;;;;;;20.10;7.78;;;7.30;99.90;;;;;;4966030;29;20435;-82
2023/12/03 01:12:25;;;;;;;12.63;7.32;;;7.30;99.90;;;;;;4963233;29;20032;-79
2023/12/03 01:14:51;;;;;;;15.95;8.85;;;7.30;99.90;;;;;;4965940;29;20122;-82
2023/12/03 01:17:16;;;;;;;13.75;7.85;;;7.30;99.90;;;;;;4965682;29;20036;-81
2023/12/03 01:19:42;;;;;;;17.63;7.90;;;7.30;99.90;;;;;;4964883;29;20043;-80
2023/12/03 01:22:08;;;;;;;17.08;8.63;;;7.30;99.90;;;;;;4963274;29;20526;-80
2023/12/03 01:24:34;;;;;;;18.67;7.45;;;7.30;99.90;;;;;;4965206;29;20030;-81
2023/12/03 01:26:59;;;;;;;13.85;7.88;;;7.30;99.90;;;;;;4967965;28;20034;-81
2023/12/03 01:29:25;;;;;;;16.15;8.27;;;7.30;99.90;;;;;;4965910;29;20547;-80
2023/12/03 01:31:50;;;;;;;18.55;8.52;;;7.30;99.90;;;;;;4963908;29;20393;-81
2023/12/03 01:34:16;;;;;;;18.83;8.63;;;7.30;99.90;;;;;;4960090;29;20115;-82
2023/12/03 01:36:41;;;;;;;15.27;8.27;;;7.30;99.90;;;;;;4963104;29;20545;-80
2023/12/03 01:39:07;;;;;;;16.33;8.23;;;7.30;99.90;;;;;;4963294;29;20478;-82
2023/12/03 01:41:32;;;;;;;16.05;9.35;;;7.30;99.90;;;;;;4963463;29;20469;-82
2023/12/03 01:43:58;;;;;;;18.58;8.23;;;7.30;99.90;;;;;;4976634;28;20085;-81
2023/12/03 01:46:24;;;;;;;16.90;8.73;;;7.30;99.90;;;;;;4955579;29;20107;-82
2023/12/03 01:48:50;;;;;;;15.23;7.95;;;7.30;99.90;;;;;;4959405;29;20074;-81
2023/12/03 01:51:16;;;;;;;16.35;8.52;;;7.30;99.90;;;;;;4959319;29;20030;-81
2023/12/03 01:53:43;;;;;;;16.40;9.15;;;7.30;99.90;;;;;;4962209;28;20035;-81
2023/12/03 01:56:10;;;;;;;16.77;8.25;;;7.30;99.90;;;;;;4956505;29;20024;-80
2023/12/03 01:58:36;;;;;;;15.77;8.38;;;7.30;99.90;;;;;;4957925;28;20039;-81
2023/12/03 02:01:02;;;;;;;19.02;8.80;;;7.30;99.90;;;;;;4961037;28;20548;-82
2023/12/03 02:03:28;;;;;;;15.55;8.68;;;7.30;99.90;;;;;;4974316;28;20027;-82
2023/12/03 02:06:05;;;;;;;15.05;9.18;;;7.30;99.90;;;;;;4960010;28;20015;-80
2023/12/03 02:08:32;;;;;;;17.63;8.68;;;7.30;99.90;;;;;;4970852;28;20047;-81
2023/12/03 02:10:59;;;;;;;16.40;7.70;;;7.30;99.90;;;;;;4956757;28;20449;-83
2023/12/03 02:13:27;;;;;;;15.07;9.00;;;7.30;99.90;;;;;;4956907;29;20099;-81
2023/12/03 02:15:53;;;;;;;16.90;8.73;;;7.30;99.90;;;;;;4959517;28;20074;-81
2023/12/03 02:18:19;;;;;;;13.73;7.70;;;7.30;99.90;;;;;;4971799;28;20034;-81
2023/12/03 02:20:45;;;;;;;15.70;8.43;;;7.30;99.90;;;;;;4957126;29;20083;-82
2023/12/03 02:23:10;;;;;;;13.32;8.18;;;7.30;99.90;;;;;;4956417;29;20107;-82
2023/12/03 02:25:36;;;;;;;13.82;7.70;;;7.30;99.90;;;;;;4958152;28;20058;-81
2023/12/03 02:28:01;;;;;;;15.27;7.57;;;7.30;99.90;;;;;;4959169;28;20104;-81
2023/12/03 02:30:27;;;;;;;16.33;8.90;;;7.20;99.90;;;;;;4956834;29;20027;-81
2023/12/03 02:32:52;;;;;;;15.10;8.30;;;7.20;99.90;;;;;;4955448;29;20027;-81
2023/12/03 02:35:18;;;;;;;14.88;8.13;;;7.20;99.90;;;;;;4956092;29;20022;-81
2023/12/03 02:37:43;;;;;;;13.75;7.60;;;7.20;99.90;;;;;;4956304;29;20033;-81
2023/12/03 02:40:09;;;;;;;14.48;8.32;;;7.20;99.90;;;;;;4956104;29;20031;-81
2023/12/03 02:42:35;;;;;;;15.93;7.85;;;7.20;99.90;;;;;;4957436;28;20040;-82
2023/12/03 02:45:00;;;;;;;16.30;8.32;;;7.20;99.90;;;;;;4957362;29;20059;-81
2023/12/03 02:47:26;;;;;;;16.33;8.27;;;7.20;99.90;;;;;;4953796;28;20054;-80
2023/12/03 02:49:51;;;;;;;14.30;8.00;;;7.20;99.90;;;;;;4953819;28;20042;-82
2023/12/03 02:52:17;;;;;;;19.73;9.02;;;7.20;99.90;;;;;;4951790;29;20054;-81
2023/12/03 02:54:42;;;;;;;15.55;8.02;;;7.20;99.90;;;;;;4954793;29;20031;-81
2023/12/03 02:57:08;;;;;;;17.27;8.93;;;7.20;99.90;;;;;;4957732;28;20646;-82
2023/12/03 02:59:34;;;;;;;20.75;8.30;;;7.20;99.90;;;;;;4953850;28;20035;-81
2023/12/03 03:01:59;;;;;;;15.50;8.02;;;7.20;99.90;;;;;;4953430;29;20083;-81
2023/12/03 03:04:25;;;;;;;15.35;7.25;;;7.20;99.90;;;;;;4967500;28;20464;-81
2023/12/03 03:06:50;;;;;;;15.30;8.20;;;7.20;99.90;;;;;;4954339;29;20389;-82
2023/12/03 03:09:16;;;;;;;15.10;8.35;;;7.20;99.90;;;;;;4954443;29;20038;-82
2023/12/03 03:11:41;;;;;;;14.88;9.15;;;7.20;99.90;;;;;;4953919;29;20042;-82
2023/12/03 03:14:07;;;;;;;15.35;8.52;;;7.20;99.90;;;;;;4947315;29;20031;-82
2023/12/03 03:16:32;;;;;;;14.23;7.72;;;7.20;99.90;;;;;;4953354;28;20039;-81
2023/12/03 03:18:58;;;;;;;14.68;7.63;;;7.20;99.90;;;;;;4956375;28;20019;-81
2023/12/03 03:21:23;;;;;;;14.02;7.43;;;7.20;99.90;;;;;;4954060;29;20026;-81
2023/12/03 03:23:49;;;;;;;14.55;7.85;;;7.20;99.90;;;;;;4954066;29;20103;-81
2023/12/03 03:26:14;;;;;;;14.63;8.30;;;7.20;99.90;;;;;;4950679;28;20099;-81
2023/12/03 03:28:40;;;;;;;15.27;7.43;;;7.20;99.90;;;;;;4954885;29;20062;-81
2023/12/03 03:31:06;;;;;;;17.05;7.85;;;7.20;99.90;;;;;;4954449;29;20031;-80
2023/12/03 03:33:31;;;;;;;11.63;6.80;;;7.20;99.90;;;;;;4954779;28;20019;-82
2023/12/03 03:35:57;;;;;;;14.15;7.13;;;7.20;99.90;;;;;;4955150;29;20113;-81
2023/12/03 03:38:22;;;;;;;13.98;7.28;;;7.20;99.90;;;;;;4950887;29;20031;-82
2023/12/03 03:40:48;;;;;;;17.35;6.50;;;7.20;99.90;;;;;;4952061;29;20031;-81
2023/12/03 03:43:14;;;;;;;11.95;7.05;;;7.20;99.90;;;;;;4954402;29;20032;-81
2023/12/03 03:45:39;;;;;;;10.80;6.50;;;7.20;99.90;;;;;;4949346;28;20505;-82
2023/12/03 03:48:05;;;;;;;12.88;6.15;;;7.20;99.90;;;;;;4952240;29;20018;-82
2023/12/03 03:50:31;;;;;;;11.20;6.47;;;7.20;99.90;;;;;;4950232;29;20024;-82
2023/12/03 03:52:56;;;;;;;12.45;6.80;;;7.20;99.90;;;;;;4951727;28;20050;-82
2023/12/03 03:55:22;;;;;;;11.95;6.72;;;7.20;99.90;;;;;;4954643;29;20030;-82
2023/12/03 03:57:48;;;;;;;10.43;6.35;;;7.20;99.90;;;;;;4952556;29;20019;-82
2023/12/03 04:00:14;;;;;;;12.55;6.70;;;7.20;99.90;;;;;;4948421;29;20026;-81
2023/12/03 04:02:40;;;;;;;12.27;6.35;;;7.20;99.90;;;;;;4949083;29;20094;-81
2023/12/03 04:05:07;;;;;;;9.88;6.53;;;7.20;99.90;;;;;;4950621;28;20062;-82
2023/12/03 04:07:33;;;;;;;12.50;6.72;;;7.20;99.90;;;;;;4952808;29;20024;-81
2023/12/03 04:09:59;;;;;;;12.18;6.50;;;7.20;99.90;;;;;;4953109;28;20059;-82
2023/12/03 04:12:24;;;;;;;10.48;6.70;;;7.20;99.90;;;;;;4953950;29;20080;-80
2023/12/03 04:14:50;;;;;;;11.25;6.45;;;7.20;99.90;;;;;;4947190;29;20023;-81
2023/12/03 04:17:15;;;;;;;13.38;7.15;;;7.20;99.90;;;;;;4949256;29;20067;-82
2023/12/03 04:19:41;;;;;;;12.57;6.45;;;7.20;99.90;;;;;;4953332;29;20125;-80
2023/12/03 04:22:06;;;;;;;13.52;6.45;;;7.20;99.90;;;;;;4951729;29;20038;-81
2023/12/03 04:24:32;;;;;;;9.93;5.80;;;7.20;99.90;;;;;;4952659;29;20035;-81
2023/12/03 04:26:57;;;;;;;12.00;6.00;;;7.20;99.90;;;;;;4949751;28;20024;-81
2023/12/03 04:29:23;;;;;;;11.95;6.05;;;7.20;99.90;;;;;;4948282;29;20042;-81
2023/12/03 04:31:49;;;;;;;10.52;6.10;;;7.20;99.90;;;;;;4951389;29;20019;-81
2023/12/03 04:34:14;;;;;;;11.02;6.25;;;7.20;99.90;;;;;;4955000;29;20027;-80
2023/12/03 04:36:43;;;;;;;11.52;6.22;;;7.20;99.90;;;;;;4952100;29;20027;-81
2023/12/03 04:39:09;;;;;;;9.82;5.38;;;7.20;99.90;;;;;;4952420;29;20015;-82
2023/12/03 04:41:35;;;;;;;11.95;5.20;;;7.20;99.90;;;;;;4951105;28;20032;-82
2023/12/03 04:44:01;;;;;;;10.05;5.93;;;7.20;99.90;;;;;;4955163;28;20540;-82
2023/12/03 04:46:26;;;;;;;14.98;6.10;;;7.20;99.90;;;;;;4951866;29;20059;-81
2023/12/03 04:48:52;;;;;;;13.20;6.63;;;7.20;99.90;;;;;;4951276;28;20106;-81
2023/12/03 04:51:17;;;;;;;10.38;6.25;;;7.20;99.90;;;;;;4951289;29;20094;-81
2023/12/03 04:53:43;;;;;;;12.07;5.38;;;7.20;99.90;;;;;;4964630;28;20035;-80
2023/12/03 04:56:09;;;;;;;11.15;6.03;;;7.20;99.90;;;;;;4947356;29;20024;-82
2023/12/03 04:58:34;;;;;;;11.63;6.55;;;7.20;99.90;;;;;;4955930;28;20086;-81
2023/12/03 05:01:00;;;;;;;10.05;5.80;;;7.20;99.90;;;;;;4953877;29;20023;-81
2023/12/03 05:03:25;;;;;;;8.88;5.72;;;7.20;99.90;;;;;;4948331;29;20055;-81
2023/12/03 05:05:51;;;;;;;8.23;5.07;;;7.20;99.90;;;;;;4950101;29;20054;-81
2023/12/03 05:08:20;;;;;;;8.93;5.40;;;7.20;99.90;;;;;;4951485;28;20027;-81
2023/12/03 05:10:45;;;;;;;11.77;5.90;;;7.20;99.90;;;;;;4954808;29;20105;-81
2023/12/03 05:13:11;;;;;;;9.45;5.80;;;7.20;99.90;;;;;;4953167;29;20055;-82
2023/12/03 05:15:36;;;;;;;10.30;5.35;;;7.20;99.90;;;;;;4951484;29;20497;-81
2023/12/03 05:18:02;;;;;;;9.57;5.20;;;7.20;99.90;;;;;;4949645;29;20127;-82
2023/12/03 05:20:28;;;;;;;8.85;5.13;;;7.20;99.90;;;;;;4947065;29;20027;-80
2023/12/03 05:22:53;;;;;;;11.75;5.78;;;7.20;99.90;;;;;;4954521;29;20077;-82
2023/12/03 05:25:19;;;;;;;9.10;4.57;;;7.20;99.90;;;;;;4955469;28;20084;-82
2023/12/03 05:27:46;;;;;;;13.77;5.55;;;7.20;99.90;;;;;;4948680;28;20050;-81
2023/12/03 05:30:14;;;;;;;9.98;5.20;;;7.20;99.90;;;;;;4950026;29;20019;-81
2023/12/03 05:32:43;;;;;;;8.90;5.13;;;7.20;99.90;;;;;;4947342;28;20032;-81
2023/12/03 05:35:09;;;;;;;8.57;4.30;;;7.20;99.90;;;;;;4952270;28;20482;-81
2023/12/03 05:37:34;;;;;;;8.73;5.28;;;7.20;99.90;;;;;;4950346;28;20035;-82
2023/12/03 05:40:00;;;;;;;10.98;5.40;;;7.20;99.90;;;;;;4951417;28;20445;-81
2023/12/03 05:42:25;;;;;;;10.60;5.72;;;7.10;99.90;;;;;;4947848;28;20469;-82
2023/12/03 05:44:51;;;;;;;9.43;5.05;;;7.20;99.90;;;;;;4949444;28;20070;-81
2023/12/03 05:47:16;;;;;;;9.77;5.25;;;7.20;99.90;;;;;;4954098;28;20023;-82
2023/12/03 05:49:42;;;;;;;8.30;5.03;;;7.20;99.90;;;;;;4950699;29;20082;-82
2023/12/03 05:52:07;;;;;;;9.48;5.45;;;7.20;99.90;;;;;;4949192;29;20501;-79
2023/12/03 05:54:33;;;;;;;9.25;5.15;;;7.10;99.90;;;;;;4949038;29;20035;-82
2023/12/03 05:56:59;;;;;;;9.10;5.60;;;7.10;99.90;;;;;;4946552;29;20035;-81
2023/12/03 05:59:25;;;;;;;8.13;5.00;;;7.10;99.90;;;;;;4949619;29;20035;-82
2023/12/03 06:01:51;;;;;;;10.68;5.38;;;7.10;99.90;;;;;;4952166;29;20022;-82
2023/12/03 06:04:20;;;;;;;9.18;5.13;;;7.10;99.90;;;;;;4943716;29;20438;-83
2023/12/03 06:06:45;;;;;;;10.82;5.32;;;7.10;99.90;;;;;;4947626;29;20023;-82
2023/12/03 06:09:11;;;;;;;11.23;5.40;;;7.10;99.90;;;;;;4946957;29;20089;-80
2023/12/03 06:11:36;;;;;;;10.65;5.50;;;7.10;99.90;;;;;;4947024;29;20039;-82
2023/12/03 06:14:03;;;;;;;11.70;5.90;;;7.10;99.90;;;;;;4951967;29;20042;-80
2023/12/03 06:16:28;;;;;;;10.73;5.30;;;7.10;99.90;;;;;;4951199;28;20074;-82
2023/12/03 06:18:55;;;;;;;11.52;5.43;;;7.10;99.90;;;;;;4947564;29;20027;-81
2023/12/03 06:21:20;;;;;;;9.82;5.40;;;7.10;99.90;;;;;;4944546;28;20020;-80
2023/12/03 06:23:47;;;;;;;4.60;3.03;;;7.10;99.90;;;;;;4963863;28;20618;-82
2023/12/03 06:26:12;;;;;;;6.10;3.50;;;9.50;99.90;;;;;;4953037;28;20023;-81
2023/12/03 06:28:38;;;;;;;6.53;3.63;;;8.60;99.90;;;;;;4949087;29;20042;-82
2023/12/03 06:31:07;;;;;;;8.75;3.95;;;7.80;99.90;;;;;;4945654;28;20027;-81
2023/12/03 06:33:33;;;;;;;9.02;4.53;;;7.50;99.90;;;;;;4946001;29;20035;-82
2023/12/03 06:35:59;;;;;;;7.35;4.25;;;7.30;99.90;;;;;;4953801;28;20027;-81
2023/12/03 06:38:25;;;;;;;7.55;4.63;;;7.20;99.90;;;;;;4958572;28;20041;-81
2023/12/03 06:40:50;;;;;;;7.93;4.63;;;7.20;99.90;;;;;;4974993;28;20035;-82
2023/12/03 06:43:16;;;;;;;9.18;4.88;;;7.20;99.90;;;;;;4957134;28;20366;-84
2023/12/03 06:45:41;;;;;;;11.50;5.38;;;7.20;99.90;;;;;;4950826;28;20497;-79
2023/12/03 06:48:07;;;;;;;8.40;5.30;;;7.10;99.90;;;;;;4954104;28;20054;-81
2023/12/03 06:50:33;;;;;;;10.73;5.80;;;7.10;99.90;;;;;;4950024;28;20031;-82
2023/12/03 06:52:59;;;;;;;10.85;5.07;;;7.10;99.90;;;;;;4943913;29;20016;-82
2023/12/03 06:55:25;;;;;;;12.75;6.03;;;7.10;99.90;;;;;;4945837;28;20019;-81
2023/12/03 06:57:51;;;;;;;11.63;6.22;;;7.10;99.90;;;;;;4948098;28;20037;-82
2023/12/03 07:00:17;;;;;;;10.00;5.82;;;7.10;99.90;;;;;;4956130;29;20035;-80
2023/12/03 07:02:42;;;;;;;11.57;5.95;;;7.00;99.90;;;;;;4961391;28;20038;-81
2023/12/03 07:05:08;;;;;;;13.48;6.25;;;7.00;99.90;;;;;;4959913;29;20024;-83
2023/12/03 07:07:33;;;;;;;15.77;5.70;;;7.10;99.90;;;;;;4961678;29;20729;-80
2023/12/03 07:09:59;;;;;;;12.25;6.57;;;7.00;99.90;;;;;;4960610;29;20035;-83
2023/12/03 07:12:24;;;;;;;12.18;5.65;;;6.90;99.90;;;;;;4962893;29;20070;-80
2023/12/03 07:14:50;;;;;;;11.70;6.60;;;6.90;99.90;;;;;;4959898;28;20130;-80
2023/12/03 07:17:15;;;;;;;9.82;5.82;;;6.90;99.90;;;;;;4959638;29;20434;-80
2023/12/03 07:19:45;;;;;;;14.73;7.55;;;6.90;99.90;;;;;;4959719;28;21388;-80
2023/12/03 07:22:11;;;;;;;12.85;6.53;;;6.90;99.90;;;;;;4959555;29;20028;-80
2023/12/03 07:24:41;;;;;;;10.98;6.18;;;6.90;99.90;;;;;;4959807;28;20072;-80
2023/12/03 07:27:07;;;;;;;9.93;6.00;;;6.90;99.90;;;;;;4960899;28;20031;-80
2023/12/03 07:29:33;;;;;;;14.20;6.57;;;6.90;99.90;;;;;;4953553;29;20047;-81
2023/12/03 07:31:59;;;;;;;12.30;6.57;;;6.90;99.90;;;;;;4957007;29;20027;-81
2023/12/03 07:34:26;;;;;;;15.23;7.20;;;6.90;99.90;;;;;;4957892;28;20028;-80
2023/12/03 07:36:51;;;;;;;13.60;7.07;;;6.90;99.90;;;;;;4954362;28;20090;-80
2023/12/03 07:39:18;;;;;;;13.80;6.85;;;6.90;99.90;;;;;;4954068;28;20028;-80
2023/12/03 07:41:50;;;;;;;11.07;6.15;;;6.90;99.90;;;;;;4953508;29;20057;-81
2023/12/03 07:44:16;;;;;;;5.40;3.55;;;6.90;99.90;;;;;;4949492;29;20022;-73
2023/12/03 07:46:42;;;;;;;8.07;4.18;;;8.90;99.90;;;;;;4950632;28;20091;-80
2023/12/03 07:49:07;;;;;;;6.93;3.70;;;9.10;99.90;;;;;;4959393;28;20102;-80
2023/12/03 07:51:33;;;;;;;9.52;5.05;;;7.90;99.90;;;;;;4962792;28;20031;-82
2023/12/03 07:53:58;;;;;;;9.30;5.50;;;7.40;99.90;;;;;;4960340;29;20493;-83
2023/12/03 07:56:36;;;;;;;9.88;5.13;;;7.20;99.90;;;;;;4956046;29;20035;-81
2023/12/03 07:59:03;;;;;;;9.88;5.53;;;7.10;99.90;;;;;;4955514;29;20015;-81
2023/12/03 08:01:29;;;;;;;9.90;5.40;;;7.10;99.90;;;;;;4957881;29;20031;-79
2023/12/03 08:03:54;;;;;;;14.27;6.25;;;7.10;99.90;;;;;;4955678;29;20029;-80
2023/12/03 08:06:20;;;;;;;12.27;6.13;;;7.00;99.90;;;;;;4944415;28;20015;-79
2023/12/03 08:08:45;;;;;;;9.38;5.93;;;7.00;99.90;;;;;;4948611;29;20028;-81
2023/12/03 08:11:11;;;;;;;13.70;6.32;;;7.10;99.90;;;;;;4949175;29;20484;-80
2023/12/03 08:13:36;;;;;;;11.30;6.07;;;7.10;99.90;;;;;;4955093;28;20037;-82
2023/12/03 08:16:03;;;;;;;12.27;6.78;;;7.10;99.90;;;;;;4954326;29;20559;-80
2023/12/03 08:18:30;;;;;;;15.82;6.43;;;7.10;99.90;;;;;;4952331;28;20030;-80
2023/12/03 08:20:56;;;;;;;14.45;6.90;;;7.00;99.90;;;;;;4952969;28;20085;-81
2023/12/03 08:23:21;;;;;;;11.55;6.47;;;7.00;99.90;;;;;;4944510;29;20020;-80
2023/12/03 08:25:47;;;;;;;12.27;6.53;;;7.00;99.90;;;;;;4950773;28;20375;-80
2023/12/03 08:28:12;;;;;;;13.65;6.90;;;7.00;99.90;;;;;;4951033;28;20162;-81
2023/12/03 08:30:39;;;;;;;15.93;7.20;;;7.00;99.90;;;;;;4947515;29;20720;-80
2023/12/03 08:33:04;;;;;;;14.77;7.45;;;7.00;99.90;;;;;;4947467;29;20034;-80
2023/12/03 08:35:31;;;;;;;12.30;7.55;;;7.00;99.90;;;;;;4945106;28;20040;-82
2023/12/03 08:37:57;;;;;;;16.13;8.15;;;7.00;99.90;;;;;;4944343;29;20027;-81
2023/12/03 08:40:23;;;;;;;15.40;8.23;;;7.00;99.90;;;;;;4950854;28;20023;-83
2023/12/03 08:42:49;;;;;;;16.92;8.90;;;7.00;99.90;;;;;;4958578;28;20027;-82
2023/12/03 08:45:15;;;;;;;13.98;8.15;;;7.00;99.90;;;;;;4952825;29;20395;-83
2023/12/03 08:47:41;;;;;;;15.68;8.98;;;7.10;99.90;;;;;;4951094;29;20453;-82
2023/12/03 08:50:07;;;;;;;13.20;8.43;;;7.10;99.90;;;;;;4964312;28;20673;-81
2023/12/03 08:52:33;;;;;;;14.85;7.38;;;7.10;99.90;;;;;;4950463;28;20039;-82
2023/12/03 08:54:59;;;;;;;13.70;7.65;;;7.10;99.90;;;;;;4950866;29;20035;-82
2023/12/03 08:57:25;;;;;;;13.80;7.43;;;7.20;99.90;;;;;;4946649;29;20023;-79
2023/12/03 08:59:53;;;;;;;13.45;7.43;;;7.20;99.90;;;;;;4950987;28;20178;-81
2023/12/03 09:02:19;;;;;;;13.48;7.82;;;7.20;99.90;;;;;;4950066;29;20583;-81
2023/12/03 09:04:45;;;;;;;13.50;7.65;;;7.20;99.90;;;;;;4944888;28;20394;-81
2023/12/03 09:07:10;;;;;;;13.35;7.80;;;7.20;99.90;;;;;;4947883;29;20032;-82
2023/12/03 09:09:36;;;;;;;15.00;7.93;;;7.20;99.90;;;;;;4950193;29;20035;-82
2023/12/03 09:12:01;;;;;;;17.63;7.72;;;7.20;99.90;;;;;;4950964;28;20030;-82
2023/12/03 09:14:27;;;;;;;13.73;7.60;;;7.20;99.90;;;;;;4963552;28;20045;-83
2023/12/03 09:16:54;;;;;;;15.13;8.32;;;7.20;99.90;;;;;;4963394;28;20078;-80
2023/12/03 09:19:19;;;;;;;15.57;8.02;;;7.20;99.90;;;;;;4952762;28;20390;-82
2023/12/03 09:21:45;;;;;;;19.02;8.55;;;7.20;99.90;;;;;;4950255;29;20030;-82
2023/12/03 09:24:11;;;;;;;19.58;9.10;;;7.20;99.90;;;;;;4947613;28;20059;-82
2023/12/03 09:26:37;;;;;;;15.80;8.20;;;7.20;99.90;;;;;;4952613;28;20098;-81
2023/12/03 09:29:02;;;;;;;14.30;8.70;;;7.20;99.90;;;;;;4951717;29;20031;-83
2023/12/03 09:31:28;;;;;;;16.15;8.50;;;7.20;99.90;;;;;;4951847;28;20087;-83
2023/12/03 09:33:53;;;;;;;13.65;7.95;;;7.20;99.90;;;;;;4948460;28;20035;-83
2023/12/03 09:36:19;;;;;;;16.02;7.65;;;7.20;99.90;;;;;;4946775;29;20023;-83
2023/12/03 09:38:45;;;;;;;15.38;8.32;;;7.20;99.90;;;;;;4944271;29;20421;-82
2023/12/03 09:41:15;;;;;;;14.70;8.50;;;7.20;99.90;;;;;;4946578;28;20043;-82
2023/12/03 09:43:45;;;;;;;16.48;8.45;;;7.20;99.90;;;;;;4946207;29;20031;-83
2023/12/03 09:46:14;;;;;;;16.33;8.73;;;7.20;99.90;;;;;;4950571;28;20038;-83
2023/12/03 09:48:42;;;;;;;13.03;7.80;;;7.20;99.90;;;;;;4957312;28;20514;-83
2023/12/03 09:51:12;;;;;;;19.52;8.55;;;7.20;99.90;;;;;;4945374;29;20271;-83
2023/12/03 09:53:44;;;;;;;15.15;8.05;;;7.20;99.90;;;;;;4946295;28;20035;-82
2023/12/03 09:56:11;;;;;;;13.38;7.97;;;7.20;99.90;;;;;;4947163;29;20042;-82
2023/12/03 09:58:38;;;;;;;14.07;8.00;;;7.20;99.90;;;;;;4947371;29;20050;-82
2023/12/03 10:01:04;;;;;;;15.48;9.02;;;7.30;99.90;;;;;;4949784;29;20023;-81
2023/12/03 10:03:30;;;;;;;16.55;8.50;;;7.20;99.90;;;;;;4951610;29;20055;-81
2023/12/03 10:05:56;;;;;;;12.07;7.63;;;7.20;99.90;;;;;;4944416;29;20427;-82
2023/12/03 10:08:22;;;;;;;14.48;8.00;;;7.20;99.90;;;;;;4951980;29;20674;-83
2023/12/03 10:10:58;;;;;;;16.25;7.95;;;7.20;99.90;;;;;;4952082;29;20031;-81
2023/12/03 10:13:24;;;;;;;17.60;8.23;;;7.20;99.90;;;;;;4964013;28;20024;-83
2023/12/03 10:15:50;;;;;;;13.38;7.68;;;7.20;99.90;;;;;;4950119;28;20763;-83
2023/12/03 10:18:16;;;;;;;13.93;8.13;;;7.30;99.90;;;;;;4944109;28;20031;-82
2023/12/03 10:20:42;;;;;;;16.02;8.10;;;7.20;99.90;;;;;;4944898;28;20496;-81
2023/12/03 10:23:14;;;;;;;16.80;8.18;;;7.20;99.90;;;;;;4941223;28;20032;-79
2023/12/03 10:25:40;;;;;;;13.73;7.85;;;7.30;99.90;;;;;;4945317;28;20086;-79
2023/12/03 10:28:08;;;;;;;14.73;8.25;;;7.30;99.90;;;;;;4945432;28;20027;-79
2023/12/03 10:30:36;;;;;;;12.90;7.10;;;7.30;99.90;;;;;;4944080;28;20047;-79
2023/12/03 10:33:05;;;;;;;13.38;7.68;;;7.30;99.90;;;;;;4947610;28;20023;-78
2023/12/03 10:35:35;;;;;;;16.83;8.55;;;7.30;99.90;;;;;;4945544;28;20019;-78
2023/12/03 10:38:01;;;;;;;12.75;7.45;;;7.20;99.90;;;;;;4942081;28;20086;-79
2023/12/03 10:40:26;;;;;;;13.85;7.35;;;7.30;99.90;;;;;;4945390;28;20481;-78
2023/12/03 10:42:52;;;;;;;15.45;7.85;;;7.30;99.90;;;;;;4946645;28;20502;-79
2023/12/03 10:45:19;;;;;;;16.42;8.20;;;7.20;99.90;;;;;;4946176;28;20040;-78
2023/12/03 10:47:44;;;;;;;16.25;9.00;;;7.30;99.90;;;;;;4943200;28;20031;-79
2023/12/03 10:50:12;;;;;;;15.90;7.75;;;7.20;99.90;;;;;;4958674;28;20107;-79
2023/12/03 10:52:39;;;;;;;14.70;8.45;;;7.20;99.90;;;;;;4942271;28;20035;-79
2023/12/03 10:55:06;;;;;;;16.02;8.25;;;7.20;99.90;;;;;;4946154;29;20509;-78
2023/12/03 10:57:47;;;;;;;16.70;9.30;;;7.20;99.90;;;;;;4944288;28;20031;-79
2023/12/03 11:00:17;;;;;;;17.67;8.65;;;7.20;99.90;;;;;;4943266;28;20070;-79
2023/12/03 11:03:01;;;;;;;16.92;8.35;;;7.20;99.90;;;;;;4942972;28;20012;-79
2023/12/03 11:05:38;;;;;;;15.43;9.07;;;7.20;99.90;;;;;;4943795;28;20036;-79
2023/12/03 11:08:04;;;;;;;15.65;8.95;;;7.20;99.90;;;;;;4944785;29;20027;-80
2023/12/03 11:10:31;;;;;;;14.38;8.90;;;7.20;99.90;;;;;;4942429;28;20723;-78
2023/12/03 11:12:58;;;;;;;16.33;8.43;;;7.20;99.90;;;;;;4946156;28;20038;-79
2023/12/03 11:15:24;;;;;;;16.80;9.32;;;7.20;99.90;;;;;;4945828;28;20674;-79
2023/12/03 11:17:51;;;;;;;20.27;10.23;;;7.20;99.90;;;;;;4944590;29;20041;-79
2023/12/03 11:20:21;;;;;;;17.15;9.88;;;7.30;99.90;;;;;;4947192;29;20028;-79
2023/12/03 11:23:18;;;;;;;16.60;8.70;;;7.20;99.90;;;;;;4945080;28;20022;-79
2023/12/03 11:25:58;;;;;;;16.90;9.60;;;7.20;99.90;;;;;;4965966;28;20042;-79
2023/12/03 11:28:23;;;;;;;16.27;9.30;;;7.20;99.90;;;;;;4947921;29;20018;-79
2023/12/03 11:30:51;;;;;;;18.75;9.38;;;7.30;99.90;;;;;;4946162;29;20023;-79
2023/12/03 11:33:21;;;;;;;17.38;9.63;;;7.30;99.90;;;;;;4943304;29;20031;-79
2023/12/03 11:35:48;;;;;;;24.05;10.10;;;7.30;99.90;;;;;;4946320;29;20394;-79
2023/12/03 11:38:19;;;;;;;19.88;9.75;;;7.40;99.90;;;;;;4948258;28;20514;-79
2023/12/03 11:40:45;;;;;;;18.50;10.25;;;7.40;99.90;;;;;;4962391;28;20042;-79
2023/12/03 11:43:26;;;;;;;17.90;10.05;;;7.40;99.90;;;;;;4950329;29;20028;-79
2023/12/03 11:45:52;;;;;;;16.83;9.40;;;7.40;99.90;;;;;;4945496;28;20027;-79
2023/12/03 11:48:19;;;;;;;19.38;9.10;;;7.40;99.90;;;;;;4953151;29;20035;-79
2023/12/03 11:50:46;;;;;;;17.63;10.05;;;7.40;99.90;;;;;;4952082;29;20074;-79
2023/12/03 11:53:15;;;;;;;20.23;10.30;;;7.40;99.90;;;;;;4950730;29;20031;-80
2023/12/03 11:55:43;;;;;;;16.90;9.60;;;7.40;99.90;;;;;;4948440;29;20019;-79
2023/12/03 11:58:09;;;;;;;18.73;10.43;;;7.40;99.90;;;;;;4961267;28;20053;-79
2023/12/03 12:00:36;;;;;;;20.50;9.73;;;7.40;99.90;;;;;;4967923;28;20042;-79
2023/12/03 12:03:04;;;;;;;18.15;9.98;;;7.40;99.90;;;;;;4960801;28;20020;-79
2023/12/03 12:05:30;;;;;;;16.80;9.20;;;7.30;99.90;;;;;;4949392;28;20020;-79
2023/12/03 12:08:03;;;;;;;19.58;10.75;;;7.40;99.90;;;;;;4947369;29;20082;-79
2023/12/03 12:10:33;;;;;;;21.65;11.20;;;7.30;99.90;;;;;;4947283;29;20023;-79
2023/12/03 12:13:00;;;;;;;20.75;10.82;;;7.30;99.90;;;;;;4951122;28;20465;-79
2023/12/03 12:15:25;;;;;;;17.35;9.85;;;7.30;99.90;;;;;;4950085;29;20039;-79
2023/12/03 12:17:52;;;;;;;19.23;10.70;;;7.30;99.90;;;;;;4950376;29;20081;-79
2023/12/03 12:20:24;;;;;;;19.40;10.02;;;7.20;99.90;;;;;;4953835;28;20027;-79
2023/12/03 12:22:51;;;;;;;20.38;10.88;;;7.30;99.90;;;;;;4946491;28;20015;-79
2023/12/03 12:25:17;;;;;;;21.52;10.30;;;7.30;99.90;;;;;;4952474;28;20019;-79
2023/12/03 12:27:44;;;;;;;21.52;11.07;;;7.30;99.90;;;;;;4953516;28;20548;-79
2023/12/03 12:30:12;;;;;;;18.95;11.15;;;7.30;99.90;;;;;;4948185;29;20114;-79
2023/12/03 12:32:38;;;;;;;21.30;10.05;;;7.20;99.90;;;;;;4949634;29;20170;-79
2023/12/03 12:35:04;;;;;;;20.67;10.38;;;7.20;99.90;;;;;;4945846;28;20059;-79
2023/12/03 12:37:31;;;;;;;19.02;10.35;;;7.20;99.90;;;;;;4964438;28;20019;-79
2023/12/03 12:40:09;;;;;;;16.95;10.10;;;7.20;99.90;;;;;;4948113;29;20034;-80
2023/12/03 12:42:34;;;;;;;20.17;10.23;;;7.20;99.90;;;;;;4944141;28;20386;-80
2023/12/03 12:45:02;;;;;;;21.48;11.07;;;7.20;99.90;;;;;;4947617;28;20023;-81